createdAt,value
2019-02-14T00:00:10.286Z,6.22
2019-02-14T00:02:38.817Z,6.10
2019-02-14T00:05:15.877Z,6.10
2019-02-14T00:07:37.454Z,5.72
2019-02-14T00:10:08.678Z,5.92
2019-02-14T00:12:37.116Z,5.65
2019-02-14T00:15:13.290Z,6.50
2019-02-14T00:17:41.739Z,6.25
2019-02-14T00:20:10.568Z,6.08
2019-02-14T00:22:39.086Z,5.97
2019-02-14T00:25:07.692Z,5.37
2019-02-14T00:27:36.203Z,6.40
2019-02-14T00:30:06.508Z,5.78
2019-02-14T00:32:35.045Z,5.58
2019-02-14T00:35:03.699Z,5.58
2019-02-14T00:37:32.154Z,5.67
2019-02-14T00:40:00.628Z,5.72
2019-02-14T00:42:29.178Z,5.65
2019-02-14T00:44:57.703Z,5.53
2019-02-14T00:47:26.113Z,5.55
2019-02-14T00:49:54.575Z,6.50
2019-02-14T00:52:23.092Z,5.78
2019-02-14T00:54:51.550Z,5.55
2019-02-14T00:57:20.164Z,5.90
2019-02-14T00:59:48.702Z,5.97
2019-02-14T01:02:17.230Z,6.25
2019-02-14T01:04:45.673Z,5.35
2019-02-14T01:07:14.178Z,5.17
2019-02-14T01:09:42.737Z,4.65
2019-02-14T01:12:11.547Z,4.20
2019-02-14T01:14:40.117Z,5.45
2019-02-14T01:17:08.714Z,3.98
2019-02-14T01:19:37.277Z,3.58
2019-02-14T01:22:05.987Z,3.12
2019-02-14T01:24:34.426Z,3.58
2019-02-14T01:27:02.915Z,3.02
2019-02-14T01:29:31.433Z,3.00
2019-02-14T01:31:59.950Z,2.47
2019-02-14T01:34:28.470Z,2.77
2019-02-14T01:36:57.080Z,2.00
2019-02-14T01:39:25.518Z,2.80
2019-02-14T01:41:54.033Z,2.72
2019-02-14T01:44:22.616Z,2.52
2019-02-14T01:46:51.105Z,2.55
2019-02-14T01:49:19.538Z,2.10
2019-02-14T01:51:48.039Z,2.50
2019-02-14T01:54:16.535Z,2.05
2019-02-14T01:56:45.039Z,2.05
2019-02-14T01:59:13.628Z,2.33
2019-02-14T02:01:42.120Z,2.25
2019-02-14T02:04:10.580Z,2.42
2019-02-14T02:06:39.177Z,2.67
2019-02-14T02:09:07.683Z,2.80
2019-02-14T02:11:36.136Z,2.22
2019-02-14T02:14:04.933Z,2.58
2019-02-14T02:16:33.484Z,2.20
2019-02-14T02:19:01.951Z,2.30
2019-02-14T02:21:30.487Z,2.83
2019-02-14T02:23:59.078Z,2.60
2019-02-14T02:26:27.611Z,2.55
2019-02-14T02:28:56.132Z,2.42
2019-02-14T02:31:24.578Z,2.20
2019-02-14T02:33:53.059Z,2.47
2019-02-14T02:36:21.623Z,2.33
2019-02-14T02:38:50.082Z,2.08
2019-02-14T02:41:18.513Z,2.40
2019-02-14T02:43:47.014Z,2.30
2019-02-14T02:46:15.489Z,2.20
2019-02-14T02:48:43.962Z,2.55
2019-02-14T02:51:12.504Z,2.27
2019-02-14T02:53:40.974Z,2.30
2019-02-14T02:56:09.492Z,2.33
2019-02-14T02:58:37.997Z,2.60
2019-02-14T03:01:06.552Z,2.60
2019-02-14T03:03:35.057Z,2.70
2019-02-14T03:08:40.304Z,3.02
2019-02-14T03:11:08.817Z,2.50
2019-02-14T03:13:37.221Z,2.72
2019-02-14T03:16:05.706Z,2.52
2019-02-14T03:18:34.182Z,2.67
2019-02-14T03:21:02.668Z,2.52
2019-02-14T03:23:31.262Z,2.85
2019-02-14T03:25:59.721Z,2.72
2019-02-14T03:28:28.306Z,2.90
2019-02-14T03:30:56.931Z,2.47
2019-02-14T03:33:25.353Z,2.65
2019-02-14T03:35:53.775Z,2.45
2019-02-14T03:38:22.300Z,2.85
2019-02-14T03:40:50.777Z,2.40
2019-02-14T03:43:19.267Z,2.92
2019-02-14T03:45:47.818Z,2.50
2019-02-14T03:48:16.262Z,2.55
2019-02-14T03:50:44.813Z,2.50
2019-02-14T03:53:13.330Z,3.00
2019-02-14T03:55:41.794Z,2.40
2019-02-14T03:58:10.307Z,2.50
2019-02-14T04:07:36.242Z,2.52
2019-02-14T04:10:13.866Z,2.72
2019-02-14T04:12:42.380Z,2.95
2019-02-14T04:15:14.170Z,3.12
2019-02-14T04:17:42.689Z,2.60
2019-02-14T04:20:11.773Z,2.83
2019-02-14T04:22:40.287Z,2.87
2019-02-14T04:25:09.863Z,2.83
2019-02-14T04:27:38.361Z,2.67
2019-02-14T04:30:09.914Z,3.55
2019-02-14T04:32:38.417Z,3.08
2019-02-14T04:35:06.944Z,3.65
2019-02-14T04:37:35.386Z,2.60
2019-02-14T04:40:08.694Z,2.70
2019-02-14T04:42:37.274Z,3.08
2019-02-14T04:45:07.136Z,3.75
2019-02-14T04:47:35.600Z,3.00
2019-02-14T04:50:05.132Z,3.40
2019-02-14T04:52:33.612Z,3.65
2019-02-14T04:55:02.066Z,3.08
2019-02-14T04:57:30.677Z,3.12
2019-02-14T04:59:59.122Z,3.15
2019-02-14T05:02:27.597Z,3.30
2019-02-14T05:04:56.119Z,3.98
2019-02-14T05:07:24.573Z,3.37
2019-02-14T05:09:53.091Z,2.72
2019-02-14T05:12:21.586Z,3.65
2019-02-14T05:14:50.097Z,3.47
2019-02-14T05:17:18.549Z,3.17
2019-02-14T05:19:47.074Z,3.55
2019-02-14T05:22:15.513Z,3.00
2019-02-14T05:24:44.049Z,3.35
2019-02-14T05:27:12.649Z,4.03
2019-02-14T05:29:41.119Z,4.15
2019-02-14T05:32:09.608Z,3.70
2019-02-14T05:34:38.076Z,3.72
2019-02-14T05:37:06.579Z,3.50
2019-02-14T05:39:35.051Z,4.03
2019-02-14T05:42:03.555Z,3.35
2019-02-14T05:44:32.152Z,3.60
2019-02-14T05:47:00.623Z,3.80
2019-02-14T05:49:29.142Z,4.12
2019-02-14T05:51:57.697Z,4.33
2019-02-14T05:54:26.201Z,4.30
2019-02-14T05:56:54.737Z,5.15
2019-02-14T05:59:23.181Z,4.72
2019-02-14T06:01:51.711Z,4.47
2019-02-14T06:04:20.247Z,4.35
2019-02-14T06:06:48.786Z,5.22
2019-02-14T06:09:17.233Z,4.55
2019-02-14T06:11:45.754Z,4.58
2019-02-14T06:14:14.195Z,4.15
2019-02-14T06:16:42.659Z,4.67
2019-02-14T06:19:11.178Z,4.55
2019-02-14T06:21:39.641Z,6.05
2019-02-14T06:24:08.125Z,5.00
2019-02-14T06:26:36.773Z,3.77
2019-02-14T06:29:05.271Z,4.72
2019-02-14T06:31:33.743Z,4.37
2019-02-14T06:34:02.189Z,4.20
2019-02-14T06:36:30.660Z,3.83
2019-02-14T06:38:59.149Z,3.60
2019-02-14T06:41:27.797Z,4.10
2019-02-14T06:43:56.362Z,3.33
2019-02-14T06:46:24.900Z,3.30
2019-02-14T06:48:53.458Z,3.33
2019-02-14T06:51:21.928Z,4.05
2019-02-14T06:53:50.344Z,3.37
2019-02-14T06:56:18.912Z,3.10
2019-02-14T06:58:47.538Z,3.22
2019-02-14T07:01:16.081Z,3.77
2019-02-14T07:03:44.726Z,3.40
2019-02-14T07:06:13.245Z,4.20
2019-02-14T07:08:41.780Z,3.35
2019-02-14T07:11:10.315Z,3.98
2019-02-14T07:13:38.835Z,3.67
2019-02-14T07:16:07.319Z,3.67
2019-02-14T07:18:35.965Z,3.33
2019-02-14T07:21:04.435Z,4.10
2019-02-14T07:23:32.943Z,4.10
2019-02-14T07:26:01.552Z,4.28
2019-02-14T07:28:30.081Z,4.97
2019-02-14T07:30:58.633Z,4.22
2019-02-14T07:33:27.187Z,4.50
2019-02-14T07:35:55.695Z,4.65
2019-02-14T07:38:24.273Z,4.33
2019-02-14T07:40:52.899Z,3.90
2019-02-14T07:43:21.474Z,4.65
2019-02-14T07:45:49.950Z,3.77
2019-02-14T07:48:18.422Z,3.67
2019-02-14T07:50:46.982Z,3.87
2019-02-14T07:53:15.542Z,4.58
2019-02-14T07:55:44.045Z,4.85
2019-02-14T07:58:12.621Z,4.50
2019-02-14T08:00:41.300Z,5.35
2019-02-14T08:03:09.843Z,4.35
2019-02-14T08:05:38.362Z,4.25
2019-02-14T08:08:06.932Z,3.85
2019-02-14T08:10:35.483Z,3.90
2019-02-14T08:13:04.017Z,4.47
2019-02-14T08:15:32.594Z,3.45
2019-02-14T08:18:01.174Z,4.08
2019-02-14T08:20:29.687Z,3.50
2019-02-14T08:22:58.255Z,3.80
2019-02-14T08:25:26.807Z,4.37
2019-02-14T08:27:55.268Z,3.17
2019-02-14T08:30:23.781Z,3.90
2019-02-14T08:32:52.332Z,4.53
2019-02-14T08:35:20.913Z,4.42
2019-02-14T08:37:49.381Z,4.22
2019-02-14T08:40:26.805Z,5.12
2019-02-14T08:42:55.401Z,4.85
2019-02-14T08:45:24.223Z,5.15
2019-02-14T08:47:52.874Z,4.22
2019-02-14T08:50:21.306Z,3.67
2019-02-14T08:52:49.777Z,4.80
2019-02-14T08:55:18.286Z,4.85
2019-02-14T08:57:46.796Z,5.58
2019-02-14T09:00:16.742Z,4.90
2019-02-14T09:02:45.262Z,4.85
2019-02-14T09:05:13.852Z,8.05
2019-02-14T09:07:42.409Z,4.22
2019-02-14T09:10:15.777Z,4.85
2019-02-14T09:12:44.232Z,5.53
2019-02-14T09:15:14.223Z,4.78
2019-02-14T09:17:42.785Z,5.92
2019-02-14T09:20:19.228Z,4.78
2019-02-14T09:22:47.724Z,5.17
2019-02-14T09:25:16.172Z,5.20
2019-02-14T09:27:44.621Z,5.20
2019-02-14T09:30:16.754Z,3.77
2019-02-14T09:32:45.240Z,5.00
2019-02-14T09:35:13.746Z,6.33
2019-02-14T09:37:42.274Z,4.85
2019-02-14T09:40:15.683Z,5.00
2019-02-14T09:42:44.160Z,4.78
2019-02-14T09:45:13.820Z,4.17
2019-02-14T09:47:42.420Z,4.65
2019-02-14T09:50:14.746Z,4.35
2019-02-14T09:52:43.243Z,5.28
2019-02-14T09:55:14.829Z,4.08
2019-02-14T09:57:43.277Z,4.45
2019-02-14T10:00:16.688Z,3.83
2019-02-14T10:02:45.209Z,4.67
2019-02-14T10:05:14.623Z,3.80
2019-02-14T10:07:43.139Z,4.67
2019-02-14T10:10:20.142Z,4.17
2019-02-14T10:12:48.634Z,4.70
2019-02-14T10:15:17.151Z,4.20
2019-02-14T10:17:45.674Z,3.58
2019-02-14T10:20:15.827Z,3.33
2019-02-14T10:22:44.318Z,3.98
2019-02-14T10:25:13.434Z,3.98
2019-02-14T10:27:41.960Z,3.95
2019-02-14T10:30:21.345Z,4.08
2019-02-14T10:32:49.891Z,4.03
2019-02-14T10:35:18.413Z,4.00
2019-02-14T10:37:46.906Z,4.12
2019-02-14T10:40:16.311Z,4.40
2019-02-14T10:42:44.838Z,4.30
2019-02-14T10:45:18.559Z,5.00
2019-02-14T10:47:47.036Z,5.15
2019-02-14T10:50:15.540Z,4.70
2019-02-14T10:52:44.231Z,4.33
2019-02-14T10:55:14.300Z,4.70
2019-02-14T10:57:42.890Z,5.20
2019-02-14T11:00:28.103Z,4.47
2019-02-14T11:02:56.559Z,5.33
2019-02-14T11:05:25.124Z,4.67
2019-02-14T11:07:53.830Z,5.95
2019-02-14T11:10:22.376Z,5.55
2019-02-14T11:12:50.933Z,5.15
2019-02-14T11:15:24.391Z,5.75
2019-02-14T11:17:52.807Z,6.67
2019-02-14T11:20:21.260Z,6.85
2019-02-14T11:22:49.843Z,6.47
2019-02-14T11:25:24.500Z,5.67
2019-02-14T11:27:53.118Z,5.00
2019-02-14T11:30:21.670Z,5.45
2019-02-14T11:32:50.120Z,5.55
2019-02-14T11:35:18.639Z,5.62
2019-02-14T11:37:47.262Z,5.08
2019-02-14T11:40:15.780Z,5.75
2019-02-14T11:42:44.346Z,6.15
2019-02-14T11:45:18.432Z,5.83
2019-02-14T11:50:14.777Z,6.37
2019-02-14T11:52:43.234Z,5.87
2019-02-14T11:55:11.990Z,5.47
2019-02-14T11:57:40.624Z,7.40
2019-02-14T12:00:13.618Z,7.72
2019-02-14T12:02:42.156Z,6.83
2019-02-14T12:05:10.735Z,5.78
2019-02-14T12:07:39.198Z,6.80
2019-02-14T12:10:13.531Z,6.50
2019-02-14T12:12:40.229Z,6.22
2019-02-14T12:15:10.628Z,6.40
2019-02-14T12:17:39.111Z,6.78
2019-02-14T12:20:12.844Z,6.72
2019-02-14T12:22:46.676Z,6.67
2019-02-14T12:25:17.476Z,7.12
2019-02-14T12:27:45.920Z,7.47
2019-02-14T12:30:15.320Z,7.47
2019-02-14T12:32:43.981Z,7.58
2019-02-14T12:35:12.488Z,9.00
2019-02-14T12:37:41.017Z,8.35
2019-02-14T12:40:11.822Z,7.75
2019-02-14T12:42:40.346Z,8.68
2019-02-14T12:45:20.096Z,10.65
2019-02-14T12:47:41.928Z,9.95
2019-02-14T12:50:10.446Z,9.85
2019-02-14T12:52:38.943Z,9.43
2019-02-14T12:55:07.423Z,8.83
2019-02-14T12:57:38.887Z,8.43
2019-02-14T13:00:13.133Z,8.08
2019-02-14T13:02:41.602Z,8.70
2019-02-14T13:05:10.093Z,8.78
2019-02-14T13:07:38.597Z,9.00
2019-02-14T13:10:10.391Z,10.48
2019-02-14T13:12:38.854Z,10.05
2019-02-14T13:15:10.836Z,10.48
2019-02-14T13:17:39.334Z,10.45
2019-02-14T13:20:08.785Z,9.38
2019-02-14T13:22:37.319Z,10.40
2019-02-14T13:25:08.854Z,9.63
2019-02-14T13:27:37.417Z,10.40
2019-02-14T13:30:15.476Z,9.95
2019-02-14T13:32:44.152Z,9.70
2019-02-14T13:35:12.744Z,8.75
2019-02-14T13:37:41.394Z,9.10
2019-02-14T13:40:09.906Z,8.33
2019-02-14T13:42:38.433Z,7.85
2019-02-14T13:45:10.534Z,8.50
2019-02-14T13:47:39.122Z,7.45
2019-02-14T13:50:10.119Z,7.90
2019-02-14T13:52:38.654Z,7.92
2019-02-14T13:55:09.282Z,8.38
2019-02-14T13:57:37.885Z,9.28
2019-02-14T14:00:12.822Z,10.80
2019-02-14T14:02:41.330Z,9.28
2019-02-14T14:05:09.848Z,10.35
2019-02-14T14:07:40.321Z,11.83
2019-02-14T14:10:09.830Z,11.73
2019-02-14T14:12:38.395Z,12.37
2019-02-14T14:15:09.094Z,13.40
2019-02-14T14:17:37.638Z,13.53
2019-02-14T14:20:07.668Z,11.10
2019-02-14T14:22:36.243Z,11.03
2019-02-14T14:25:06.443Z,11.93
2019-02-14T14:27:34.887Z,12.55
2019-02-14T14:30:05.049Z,12.47
2019-02-14T14:32:33.724Z,13.30
2019-02-14T14:35:02.162Z,11.75
2019-02-14T14:37:30.658Z,12.80
2019-02-14T14:39:59.260Z,11.88
2019-02-14T14:42:38.722Z,11.65
2019-02-14T14:45:09.407Z,11.25
2019-02-14T14:47:37.946Z,12.70
2019-02-14T14:50:07.952Z,10.32
2019-02-14T14:52:36.400Z,11.05
2019-02-14T14:55:05.808Z,10.13
2019-02-14T14:57:34.375Z,11.65
2019-02-14T15:00:03.191Z,9.68
2019-02-14T15:02:31.634Z,9.63
2019-02-14T15:05:00.308Z,10.13
2019-02-14T15:07:28.953Z,9.73
2019-02-14T15:09:57.958Z,9.45
2019-02-14T15:12:26.628Z,9.13
2019-02-14T15:14:55.181Z,9.25
2019-02-14T15:17:23.656Z,11.33
2019-02-14T15:19:52.146Z,11.43
2019-02-14T15:22:20.658Z,11.88
2019-02-14T15:24:49.137Z,12.68
2019-02-14T15:27:17.706Z,14.47
2019-02-14T15:29:46.162Z,13.78
2019-02-14T15:32:14.684Z,12.80
2019-02-14T15:34:43.182Z,13.45
2019-02-14T15:37:12.768Z,11.70
2019-02-14T15:39:41.842Z,12.03
2019-02-14T15:42:10.290Z,11.93
2019-02-14T15:44:38.846Z,11.85
2019-02-14T15:47:07.403Z,12.00
2019-02-14T15:49:35.867Z,12.18
2019-02-14T15:52:05.961Z,12.95
2019-02-14T15:54:35.261Z,13.95
2019-02-14T15:57:04.004Z,13.25
2019-02-14T15:59:32.538Z,14.25
2019-02-14T16:02:01.092Z,14.90
2019-02-14T16:04:31.347Z,15.10
2019-02-14T16:06:59.968Z,14.90
2019-02-14T16:09:28.421Z,13.85
2019-02-14T16:11:57.907Z,14.78
2019-02-14T16:14:26.631Z,13.83
2019-02-14T16:16:55.147Z,14.68
2019-02-14T16:19:23.715Z,15.13
2019-02-14T16:21:53.764Z,13.90
2019-02-14T16:24:22.363Z,12.73
2019-02-14T16:26:50.932Z,13.08
2019-02-14T16:29:19.391Z,12.05
2019-02-14T16:31:48.003Z,12.43
2019-02-14T16:34:16.609Z,12.07
2019-02-14T16:36:45.104Z,13.32
2019-02-14T16:39:13.567Z,13.72
2019-02-14T16:41:42.145Z,12.98
2019-02-14T16:44:10.720Z,12.40
2019-02-14T16:46:39.377Z,12.07
2019-02-14T16:49:08.056Z,11.88
2019-02-14T16:51:36.498Z,12.60
2019-02-14T16:54:05.369Z,12.30
2019-02-14T16:56:33.955Z,12.63
2019-02-14T16:59:02.578Z,11.53
2019-02-14T17:01:31.271Z,12.15
2019-02-14T17:03:59.815Z,14.70
2019-02-14T17:06:28.305Z,12.13
2019-02-14T17:08:56.901Z,12.65
2019-02-14T17:11:25.463Z,13.53
2019-02-14T17:13:53.953Z,12.47
2019-02-14T17:16:22.501Z,12.80
2019-02-14T17:18:51.148Z,13.60
2019-02-14T17:21:19.600Z,12.80
2019-02-14T17:23:48.105Z,13.20
2019-02-14T17:26:16.647Z,13.05
2019-02-14T17:28:45.178Z,12.90
2019-02-14T17:31:13.683Z,13.72
2019-02-14T17:33:42.265Z,12.07
2019-02-14T17:36:10.760Z,10.15
2019-02-14T17:38:39.265Z,11.35
2019-02-14T17:41:07.797Z,10.68
2019-02-14T17:43:36.297Z,12.25
2019-02-14T17:46:04.778Z,11.25
2019-02-14T17:48:33.331Z,10.20
2019-02-14T17:51:01.867Z,11.43
2019-02-14T17:53:30.379Z,10.75
2019-02-14T17:55:58.861Z,10.98
2019-02-14T17:58:27.315Z,10.15
2019-02-14T18:00:55.915Z,9.80
2019-02-14T18:03:24.492Z,8.75
2019-02-14T18:05:53.164Z,10.00
2019-02-14T18:08:21.594Z,9.68
2019-02-14T18:10:54.914Z,10.75
2019-02-14T18:13:20.324Z,10.08
2019-02-14T18:15:48.763Z,9.53
2019-02-14T18:18:17.267Z,9.38
2019-02-14T18:20:45.839Z,9.40
2019-02-14T18:23:14.415Z,10.18
2019-02-14T18:25:43.055Z,10.18
2019-02-14T18:28:11.612Z,9.25
2019-02-14T18:30:40.184Z,10.75
2019-02-14T18:33:08.803Z,9.88
2019-02-14T18:35:37.335Z,9.68
2019-02-14T18:38:05.848Z,10.10
2019-02-14T18:40:34.500Z,9.33
2019-02-14T18:43:02.916Z,9.40
2019-02-14T18:45:31.443Z,9.18
2019-02-14T18:48:00.139Z,9.83
2019-02-14T18:50:28.573Z,9.83
2019-02-14T18:52:57.199Z,8.13
2019-02-14T18:55:25.764Z,8.30
2019-02-14T18:57:54.322Z,7.90
2019-02-14T19:00:22.831Z,9.53
2019-02-14T19:02:51.501Z,8.80
2019-02-14T19:05:20.015Z,8.18
2019-02-14T19:07:48.493Z,8.48
2019-02-14T19:10:17.720Z,8.40
2019-02-14T19:12:46.325Z,9.00
2019-02-14T19:15:14.873Z,8.90
2019-02-14T19:17:43.493Z,7.97
2019-02-14T19:20:12.914Z,8.70
2019-02-14T19:22:42.038Z,9.13
2019-02-14T19:25:11.659Z,9.33
2019-02-14T19:27:40.234Z,11.40
2019-02-14T19:30:10.616Z,12.13
2019-02-14T19:32:39.128Z,16.32
2019-02-14T19:35:10.616Z,13.43
2019-02-14T19:37:39.193Z,10.90
2019-02-14T19:40:08.761Z,11.08
2019-02-14T19:42:37.223Z,12.37
2019-02-14T19:45:08.478Z,11.63
2019-02-14T19:47:36.973Z,11.85
2019-02-14T19:50:10.334Z,11.63
2019-02-14T19:52:38.904Z,11.70
2019-02-14T19:55:09.326Z,12.37
2019-02-14T19:57:37.851Z,12.85
2019-02-14T20:00:09.524Z,12.98
2019-02-14T20:02:38.054Z,12.33
2019-02-14T20:05:08.093Z,11.60
2019-02-14T20:07:36.684Z,10.90
2019-02-14T20:10:14.114Z,10.63
2019-02-14T20:12:42.768Z,9.78
2019-02-14T20:15:13.594Z,9.23
2019-02-14T20:17:45.192Z,9.63
2019-02-14T20:20:13.638Z,9.93
2019-02-14T20:22:42.159Z,9.28
2019-02-14T20:25:20.161Z,9.65
2019-02-14T20:27:50.079Z,9.18
2019-02-14T20:30:19.034Z,9.73
2019-02-14T20:32:47.689Z,9.60
2019-02-14T20:35:16.404Z,8.93
2019-02-14T20:37:45.017Z,10.05
2019-02-14T20:40:14.408Z,10.72
2019-02-14T20:42:43.113Z,11.10
2019-02-14T20:45:16.367Z,10.85
2019-02-14T20:47:47.850Z,11.48
2019-02-14T20:50:16.357Z,11.73
2019-02-14T20:52:46.669Z,12.13
2019-02-14T20:55:18.142Z,11.78
2019-02-14T20:57:46.673Z,12.85
2019-02-14T21:00:16.936Z,12.63
2019-02-14T21:02:45.417Z,13.03
2019-02-14T21:05:14.012Z,13.75
2019-02-14T21:07:42.533Z,13.25
2019-02-14T21:10:11.017Z,13.15
2019-02-14T21:12:39.461Z,13.62
2019-02-14T21:15:09.146Z,12.93
2019-02-14T21:17:37.652Z,13.83
2019-02-14T21:20:09.390Z,14.20
2019-02-14T21:22:37.923Z,13.13
2019-02-14T21:25:08.199Z,12.43
2019-02-14T21:27:36.629Z,13.68
2019-02-14T21:30:08.736Z,12.93
2019-02-14T21:32:37.447Z,11.33
2019-02-14T21:35:06.701Z,12.93
2019-02-14T21:37:35.114Z,13.45
2019-02-14T21:40:05.053Z,12.85
2019-02-14T21:42:33.615Z,13.43
2019-02-14T21:45:02.097Z,13.20
2019-02-14T21:47:30.717Z,12.82
2019-02-14T21:49:59.183Z,13.43
2019-02-14T21:52:27.633Z,13.95
2019-02-14T21:54:56.131Z,13.72
2019-02-14T21:57:24.689Z,13.32
2019-02-14T21:59:53.174Z,13.68
2019-02-14T22:02:21.816Z,13.00
2019-02-14T22:04:50.290Z,13.05
2019-02-14T22:07:18.729Z,15.28
2019-02-14T22:09:47.381Z,13.90
2019-02-14T22:12:15.967Z,14.70
2019-02-14T22:14:44.413Z,14.93
2019-02-14T22:17:13.130Z,13.65
2019-02-14T22:19:43.327Z,15.55
2019-02-14T22:22:11.728Z,14.65
2019-02-14T22:24:40.215Z,13.80
2019-02-14T22:27:08.734Z,14.15
2019-02-14T22:29:37.167Z,14.47
2019-02-14T22:32:05.811Z,12.88
2019-02-14T22:34:34.567Z,13.05
2019-02-14T22:37:03.042Z,13.13
2019-02-14T22:39:31.609Z,13.60
2019-02-14T22:42:00.168Z,12.98
2019-02-14T22:44:28.739Z,13.43
2019-02-14T22:46:57.304Z,12.53
2019-02-14T22:49:25.922Z,11.25
2019-02-14T22:51:54.438Z,12.03
2019-02-14T22:54:23.051Z,12.45
2019-02-14T22:56:51.661Z,11.12
2019-02-14T22:59:20.142Z,12.53
2019-02-14T23:01:48.722Z,12.18
2019-02-14T23:04:17.183Z,12.88
2019-02-14T23:06:45.705Z,11.68
2019-02-14T23:09:14.217Z,11.48
2019-02-14T23:11:42.878Z,11.28
2019-02-14T23:14:11.314Z,10.95
2019-02-14T23:16:39.895Z,10.72
2019-02-14T23:19:08.456Z,10.50
2019-02-14T23:21:37.541Z,10.32
2019-02-14T23:24:06.203Z,10.68
2019-02-14T23:26:34.756Z,10.10
2019-02-14T23:29:03.261Z,10.08
2019-02-14T23:31:31.801Z,9.73
2019-02-14T23:34:00.293Z,9.63
2019-02-14T23:36:28.886Z,9.48
2019-02-14T23:38:57.534Z,10.13
2019-02-14T23:41:26.164Z,9.60
2019-02-14T23:43:54.618Z,9.40
2019-02-14T23:46:23.063Z,9.25
2019-02-14T23:48:51.659Z,10.15
2019-02-14T23:51:22.451Z,9.23
2019-02-14T23:53:50.307Z,9.43
2019-02-14T23:56:18.791Z,8.58
2019-02-14T23:58:47.323Z,8.93
